sensor_id;sensor_type;location;lat;lon;timestamp;P1;durP1;ratioP1;P2;durP2;ratioP2
35993;SDS011;22066;54.274;18.578;2022-09-09T00:04:05;6.38;;;1.95;;
35993;SDS011;22066;54.274;18.578;2022-09-09T00:09:20;5.82;;;1.88;;
35993;SDS011;22066;54.274;18.578;2022-09-09T00:11:51;8.07;;;2.37;;
35993;SDS011;22066;54.274;18.578;2022-09-09T00:14:21;6.50;;;2.42;;
35993;SDS011;22066;54.274;18.578;2022-09-09T00:16:54;5.90;;;2.25;;
35993;SDS011;22066;54.274;18.578;2022-09-09T00:19:30;9.98;;;1.77;;
35993;SDS011;22066;54.274;18.578;2022-09-09T00:27:14;6.18;;;2.15;;
35993;SDS011;22066;54.274;18.578;2022-09-09T00:29:47;8.90;;;1.67;;
35993;SDS011;22066;54.274;18.578;2022-09-09T00:32:19;5.53;;;1.70;;
35993;SDS011;22066;54.274;18.578;2022-09-09T00:34:55;5.90;;;2.13;;
35993;SDS011;22066;54.274;18.578;2022-09-09T00:37:22;6.45;;;2.03;;
35993;SDS011;22066;54.274;18.578;2022-09-09T00:39:53;6.25;;;1.88;;
35993;SDS011;22066;54.274;18.578;2022-09-09T00:47:53;7.50;;;1.70;;
35993;SDS011;22066;54.274;18.578;2022-09-09T00:50:24;5.10;;;1.40;;
35993;SDS011;22066;54.274;18.578;2022-09-09T00:55:42;5.15;;;2.65;;
35993;SDS011;22066;54.274;18.578;2022-09-09T00:58:07;3.58;;;1.70;;
35993;SDS011;22066;54.274;18.578;2022-09-09T01:00:48;3.53;;;1.58;;
35993;SDS011;22066;54.274;18.578;2022-09-09T01:10:53;5.85;;;2.00;;
35993;SDS011;22066;54.274;18.578;2022-09-09T01:13:37;5.93;;;1.90;;
35993;SDS011;22066;54.274;18.578;2022-09-09T01:16:04;8.73;;;1.92;;
35993;SDS011;22066;54.274;18.578;2022-09-09T01:18:38;5.15;;;1.70;;
35993;SDS011;22066;54.274;18.578;2022-09-09T01:28:48;4.43;;;1.70;;
35993;SDS011;22066;54.274;18.578;2022-09-09T01:31:19;10.15;;;1.83;;
35993;SDS011;22066;54.274;18.578;2022-09-09T01:38:37;5.97;;;1.58;;
35993;SDS011;22066;54.274;18.578;2022-09-09T01:41:03;4.18;;;1.35;;
35993;SDS011;22066;54.274;18.578;2022-09-09T01:43:30;7.28;;;2.17;;
35993;SDS011;22066;54.274;18.578;2022-09-09T01:45:58;5.43;;;1.70;;
35993;SDS011;22066;54.274;18.578;2022-09-09T01:48:25;3.28;;;1.63;;
35993;SDS011;22066;54.274;18.578;2022-09-09T01:50:51;6.35;;;2.05;;
35993;SDS011;22066;54.274;18.578;2022-09-09T01:53:17;6.07;;;1.63;;
35993;SDS011;22066;54.274;18.578;2022-09-09T01:56:07;3.35;;;1.60;;
35993;SDS011;22066;54.274;18.578;2022-09-09T02:01:02;4.85;;;1.60;;
35993;SDS011;22066;54.274;18.578;2022-09-09T02:03:31;4.72;;;1.80;;
35993;SDS011;22066;54.274;18.578;2022-09-09T02:08:29;10.02;;;1.92;;
35993;SDS011;22066;54.274;18.578;2022-09-09T02:13:34;5.35;;;1.65;;
35993;SDS011;22066;54.274;18.578;2022-09-09T02:16:08;6.65;;;1.60;;
35993;SDS011;22066;54.274;18.578;2022-09-09T02:21:03;6.78;;;2.15;;
35993;SDS011;22066;54.274;18.578;2022-09-09T02:23:29;5.93;;;1.92;;
35993;SDS011;22066;54.274;18.578;2022-09-09T02:25:56;8.43;;;1.70;;
35993;SDS011;22066;54.274;18.578;2022-09-09T02:28:24;4.50;;;1.70;;
35993;SDS011;22066;54.274;18.578;2022-09-09T02:30:51;13.20;;;2.45;;
35993;SDS011;22066;54.274;18.578;2022-09-09T02:33:24;8.38;;;1.60;;
35993;SDS011;22066;54.274;18.578;2022-09-09T02:35:51;5.47;;;1.85;;
35993;SDS011;22066;54.274;18.578;2022-09-09T02:38:17;5.22;;;1.80;;
35993;SDS011;22066;54.274;18.578;2022-09-09T02:40:43;3.38;;;1.88;;
35993;SDS011;22066;54.274;18.578;2022-09-09T02:43:10;7.85;;;1.70;;
35993;SDS011;22066;54.274;18.578;2022-09-09T02:45:39;5.25;;;1.73;;
35993;SDS011;22066;54.274;18.578;2022-09-09T02:50:54;7.82;;;1.70;;
35993;SDS011;22066;54.274;18.578;2022-09-09T02:53:30;9.38;;;2.22;;
35993;SDS011;22066;54.274;18.578;2022-09-09T02:56:04;5.47;;;2.00;;
35993;SDS011;22066;54.274;18.578;2022-09-09T02:58:32;4.30;;;1.88;;
35993;SDS011;22066;54.274;18.578;2022-09-09T03:00:58;3.65;;;1.55;;
35993;SDS011;22066;54.274;18.578;2022-09-09T03:03:26;6.68;;;1.90;;
35993;SDS011;22066;54.274;18.578;2022-09-09T03:05:52;3.38;;;1.40;;
35993;SDS011;22066;54.274;18.578;2022-09-09T03:08:18;9.10;;;1.77;;
35993;SDS011;22066;54.274;18.578;2022-09-09T03:13:41;7.20;;;1.90;;
35993;SDS011;22066;54.274;18.578;2022-09-09T03:16:07;9.38;;;1.85;;
35993;SDS011;22066;54.274;18.578;2022-09-09T03:18:33;6.65;;;2.22;;
35993;SDS011;22066;54.274;18.578;2022-09-09T03:20:59;4.38;;;1.80;;
35993;SDS011;22066;54.274;18.578;2022-09-09T03:23:25;4.90;;;2.00;;
35993;SDS011;22066;54.274;18.578;2022-09-09T03:25:51;4.90;;;2.20;;
35993;SDS011;22066;54.274;18.578;2022-09-09T03:28:21;7.78;;;2.60;;
35993;SDS011;22066;54.274;18.578;2022-09-09T03:30:48;6.38;;;2.80;;
35993;SDS011;22066;54.274;18.578;2022-09-09T03:33:14;5.82;;;2.70;;
35993;SDS011;22066;54.274;18.578;2022-09-09T03:35:44;6.88;;;2.42;;
35993;SDS011;22066;54.274;18.578;2022-09-09T03:38:12;6.78;;;3.20;;
35993;SDS011;22066;54.274;18.578;2022-09-09T03:40:38;6.35;;;2.85;;
35993;SDS011;22066;54.274;18.578;2022-09-09T03:43:04;7.03;;;3.20;;
35993;SDS011;22066;54.274;18.578;2022-09-09T03:45:30;6.65;;;2.80;;
35993;SDS011;22066;54.274;18.578;2022-09-09T03:47:56;8.38;;;3.30;;
35993;SDS011;22066;54.274;18.578;2022-09-09T03:50:22;8.88;;;2.83;;
35993;SDS011;22066;54.274;18.578;2022-09-09T03:52:48;7.93;;;3.13;;
35993;SDS011;22066;54.274;18.578;2022-09-09T03:55:15;10.30;;;3.30;;
35993;SDS011;22066;54.274;18.578;2022-09-09T03:57:41;15.88;;;3.13;;
35993;SDS011;22066;54.274;18.578;2022-09-09T04:00:07;8.32;;;3.15;;
35993;SDS011;22066;54.274;18.578;2022-09-09T04:02:33;8.75;;;3.90;;
35993;SDS011;22066;54.274;18.578;2022-09-09T04:04:59;7.03;;;3.33;;
35993;SDS011;22066;54.274;18.578;2022-09-09T04:07:26;10.93;;;2.83;;
35993;SDS011;22066;54.274;18.578;2022-09-09T04:09:53;7.05;;;3.03;;
35993;SDS011;22066;54.274;18.578;2022-09-09T04:12:19;9.75;;;3.17;;
35993;SDS011;22066;54.274;18.578;2022-09-09T04:14:46;8.15;;;3.22;;
35993;SDS011;22066;54.274;18.578;2022-09-09T04:17:12;9.57;;;3.92;;
35993;SDS011;22066;54.274;18.578;2022-09-09T04:19:38;8.18;;;3.63;;
35993;SDS011;22066;54.274;18.578;2022-09-09T04:22:04;6.25;;;3.25;;
35993;SDS011;22066;54.274;18.578;2022-09-09T04:24:30;10.20;;;3.45;;
35993;SDS011;22066;54.274;18.578;2022-09-09T04:26:56;7.47;;;3.67;;
35993;SDS011;22066;54.274;18.578;2022-09-09T04:29:22;14.23;;;4.05;;
35993;SDS011;22066;54.274;18.578;2022-09-09T04:31:48;11.07;;;4.22;;
35993;SDS011;22066;54.274;18.578;2022-09-09T04:34:14;7.57;;;3.47;;
35993;SDS011;22066;54.274;18.578;2022-09-09T04:36:40;5.07;;;2.83;;
35993;SDS011;22066;54.274;18.578;2022-09-09T04:39:06;7.30;;;3.47;;
35993;SDS011;22066;54.274;18.578;2022-09-09T04:41:32;10.73;;;3.28;;
35993;SDS011;22066;54.274;18.578;2022-09-09T04:43:58;7.85;;;3.25;;
35993;SDS011;22066;54.274;18.578;2022-09-09T04:46:25;7.30;;;3.28;;
35993;SDS011;22066;54.274;18.578;2022-09-09T04:48:52;7.47;;;2.92;;
35993;SDS011;22066;54.274;18.578;2022-09-09T04:51:18;6.47;;;3.00;;
35993;SDS011;22066;54.274;18.578;2022-09-09T04:53:44;7.10;;;3.45;;
35993;SDS011;22066;54.274;18.578;2022-09-09T04:56:13;7.10;;;2.80;;
35993;SDS011;22066;54.274;18.578;2022-09-09T04:58:40;6.75;;;3.53;;
35993;SDS011;22066;54.274;18.578;2022-09-09T05:01:17;5.40;;;2.75;;
35993;SDS011;22066;54.274;18.578;2022-09-09T05:03:44;6.30;;;3.13;;
35993;SDS011;22066;54.274;18.578;2022-09-09T05:06:11;7.20;;;3.55;;
35993;SDS011;22066;54.274;18.578;2022-09-09T05:08:38;6.45;;;2.50;;
35993;SDS011;22066;54.274;18.578;2022-09-09T05:13:47;7.03;;;3.30;;
35993;SDS011;22066;54.274;18.578;2022-09-09T05:16:14;8.52;;;3.05;;
35993;SDS011;22066;54.274;18.578;2022-09-09T05:18:41;6.10;;;2.90;;
35993;SDS011;22066;54.274;18.578;2022-09-09T05:21:11;7.82;;;3.63;;
35993;SDS011;22066;54.274;18.578;2022-09-09T05:23:37;5.00;;;2.60;;
35993;SDS011;22066;54.274;18.578;2022-09-09T05:26:03;8.90;;;3.08;;
35993;SDS011;22066;54.274;18.578;2022-09-09T05:28:30;6.63;;;2.50;;
35993;SDS011;22066;54.274;18.578;2022-09-09T05:31:00;9.23;;;3.17;;
35993;SDS011;22066;54.274;18.578;2022-09-09T05:33:28;5.95;;;2.60;;
35993;SDS011;22066;54.274;18.578;2022-09-09T05:35:55;8.90;;;2.63;;
35993;SDS011;22066;54.274;18.578;2022-09-09T05:38:21;7.05;;;3.15;;
35993;SDS011;22066;54.274;18.578;2022-09-09T05:40:50;5.88;;;3.03;;
35993;SDS011;22066;54.274;18.578;2022-09-09T05:43:17;8.02;;;2.80;;
35993;SDS011;22066;54.274;18.578;2022-09-09T05:45:44;7.25;;;3.15;;
35993;SDS011;22066;54.274;18.578;2022-09-09T05:48:12;6.50;;;3.30;;
35993;SDS011;22066;54.274;18.578;2022-09-09T05:50:38;13.05;;;4.88;;
35993;SDS011;22066;54.274;18.578;2022-09-09T05:53:04;8.93;;;3.25;;
35993;SDS011;22066;54.274;18.578;2022-09-09T05:55:30;5.82;;;2.58;;
35993;SDS011;22066;54.274;18.578;2022-09-09T05:57:56;7.80;;;2.47;;
35993;SDS011;22066;54.274;18.578;2022-09-09T06:00:22;6.97;;;2.58;;
35993;SDS011;22066;54.274;18.578;2022-09-09T06:02:51;6.40;;;2.50;;
35993;SDS011;22066;54.274;18.578;2022-09-09T06:05:17;4.75;;;2.22;;
35993;SDS011;22066;54.274;18.578;2022-09-09T06:07:44;4.43;;;2.10;;
35993;SDS011;22066;54.274;18.578;2022-09-09T06:10:10;12.52;;;3.33;;
35993;SDS011;22066;54.274;18.578;2022-09-09T06:15:04;12.93;;;2.83;;
35993;SDS011;22066;54.274;18.578;2022-09-09T06:17:30;4.45;;;2.47;;
35993;SDS011;22066;54.274;18.578;2022-09-09T06:19:56;5.47;;;1.95;;
35993;SDS011;22066;54.274;18.578;2022-09-09T06:22:23;4.68;;;2.55;;
35993;SDS011;22066;54.274;18.578;2022-09-09T06:24:49;4.93;;;2.10;;
35993;SDS011;22066;54.274;18.578;2022-09-09T06:27:16;4.55;;;2.15;;
35993;SDS011;22066;54.274;18.578;2022-09-09T06:29:42;6.03;;;2.22;;
35993;SDS011;22066;54.274;18.578;2022-09-09T06:32:08;7.20;;;2.47;;
35993;SDS011;22066;54.274;18.578;2022-09-09T06:34:34;4.57;;;2.33;;
35993;SDS011;22066;54.274;18.578;2022-09-09T06:37:01;5.85;;;2.85;;
35993;SDS011;22066;54.274;18.578;2022-09-09T06:39:27;7.13;;;3.63;;
35993;SDS011;22066;54.274;18.578;2022-09-09T06:41:53;8.02;;;2.85;;
35993;SDS011;22066;54.274;18.578;2022-09-09T06:44:20;4.47;;;2.05;;
35993;SDS011;22066;54.274;18.578;2022-09-09T06:46:47;5.88;;;2.50;;
35993;SDS011;22066;54.274;18.578;2022-09-09T06:49:13;9.60;;;3.00;;
35993;SDS011;22066;54.274;18.578;2022-09-09T06:51:39;6.90;;;2.08;;
35993;SDS011;22066;54.274;18.578;2022-09-09T06:54:07;6.93;;;2.35;;
35993;SDS011;22066;54.274;18.578;2022-09-09T06:56:42;5.72;;;2.40;;
35993;SDS011;22066;54.274;18.578;2022-09-09T06:59:10;5.93;;;2.60;;
35993;SDS011;22066;54.274;18.578;2022-09-09T07:01:41;6.45;;;2.03;;
35993;SDS011;22066;54.274;18.578;2022-09-09T07:04:07;6.10;;;2.45;;
35993;SDS011;22066;54.274;18.578;2022-09-09T07:06:35;7.75;;;2.60;;
35993;SDS011;22066;54.274;18.578;2022-09-09T07:09:03;8.00;;;2.83;;
35993;SDS011;22066;54.274;18.578;2022-09-09T07:11:37;5.55;;;2.53;;
35993;SDS011;22066;54.274;18.578;2022-09-09T07:14:03;9.98;;;2.42;;
35993;SDS011;22066;54.274;18.578;2022-09-09T07:16:29;10.80;;;2.58;;
35993;SDS011;22066;54.274;18.578;2022-09-09T07:21:25;5.72;;;2.63;;
35993;SDS011;22066;54.274;18.578;2022-09-09T07:23:52;7.80;;;3.30;;
35993;SDS011;22066;54.274;18.578;2022-09-09T07:26:19;12.85;;;3.03;;
35993;SDS011;22066;54.274;18.578;2022-09-09T07:28:45;8.23;;;2.25;;
35993;SDS011;22066;54.274;18.578;2022-09-09T07:31:16;4.93;;;2.20;;
35993;SDS011;22066;54.274;18.578;2022-09-09T07:33:42;6.57;;;2.53;;
35993;SDS011;22066;54.274;18.578;2022-09-09T07:36:19;6.13;;;2.30;;
35993;SDS011;22066;54.274;18.578;2022-09-09T07:38:49;6.05;;;2.85;;
35993;SDS011;22066;54.274;18.578;2022-09-09T07:41:20;8.05;;;3.03;;
35993;SDS011;22066;54.274;18.578;2022-09-09T07:43:47;8.27;;;2.92;;
35993;SDS011;22066;54.274;18.578;2022-09-09T07:46:14;5.43;;;2.30;;
35993;SDS011;22066;54.274;18.578;2022-09-09T07:48:47;6.53;;;2.50;;
35993;SDS011;22066;54.274;18.578;2022-09-09T07:51:17;4.85;;;2.55;;
35993;SDS011;22066;54.274;18.578;2022-09-09T07:53:48;11.05;;;4.80;;
35993;SDS011;22066;54.274;18.578;2022-09-09T07:56:15;16.48;;;5.68;;
35993;SDS011;22066;54.274;18.578;2022-09-09T07:58:42;22.92;;;8.88;;
35993;SDS011;22066;54.274;18.578;2022-09-09T08:01:08;19.20;;;7.20;;
35993;SDS011;22066;54.274;18.578;2022-09-09T08:03:35;9.68;;;3.65;;
35993;SDS011;22066;54.274;18.578;2022-09-09T08:06:05;6.57;;;2.10;;
35993;SDS011;22066;54.274;18.578;2022-09-09T08:08:32;6.53;;;2.20;;
35993;SDS011;22066;54.274;18.578;2022-09-09T08:11:08;6.70;;;3.83;;
35993;SDS011;22066;54.274;18.578;2022-09-09T08:13:35;4.38;;;2.38;;
35993;SDS011;22066;54.274;18.578;2022-09-09T08:16:12;4.18;;;2.22;;
35993;SDS011;22066;54.274;18.578;2022-09-09T08:18:38;8.20;;;3.20;;
35993;SDS011;22066;54.274;18.578;2022-09-09T08:21:11;6.50;;;2.40;;
35993;SDS011;22066;54.274;18.578;2022-09-09T08:23:41;6.10;;;2.50;;
35993;SDS011;22066;54.274;18.578;2022-09-09T08:28:36;7.75;;;3.45;;
35993;SDS011;22066;54.274;18.578;2022-09-09T08:31:06;4.97;;;2.33;;
35993;SDS011;22066;54.274;18.578;2022-09-09T08:33:32;7.32;;;2.97;;
35993;SDS011;22066;54.274;18.578;2022-09-09T08:35:58;7.85;;;2.70;;
35993;SDS011;22066;54.274;18.578;2022-09-09T08:38:24;6.60;;;2.67;;
35993;SDS011;22066;54.274;18.578;2022-09-09T08:40:50;4.50;;;2.42;;
35993;SDS011;22066;54.274;18.578;2022-09-09T08:43:20;6.43;;;2.60;;
35993;SDS011;22066;54.274;18.578;2022-09-09T08:45:55;6.00;;;2.78;;
35993;SDS011;22066;54.274;18.578;2022-09-09T08:50:49;4.50;;;2.47;;
35993;SDS011;22066;54.274;18.578;2022-09-09T08:58:11;5.65;;;2.75;;
35993;SDS011;22066;54.274;18.578;2022-09-09T09:09:02;4.65;;;2.38;;
35993;SDS011;22066;54.274;18.578;2022-09-09T09:11:35;4.80;;;2.50;;
35993;SDS011;22066;54.274;18.578;2022-09-09T09:14:03;4.95;;;2.45;;
35993;SDS011;22066;54.274;18.578;2022-09-09T09:16:32;5.32;;;2.28;;
35993;SDS011;22066;54.274;18.578;2022-09-09T09:18:58;5.28;;;2.30;;
35993;SDS011;22066;54.274;18.578;2022-09-09T09:23:55;6.35;;;2.47;;
35993;SDS011;22066;54.274;18.578;2022-09-09T09:26:23;5.80;;;2.75;;
35993;SDS011;22066;54.274;18.578;2022-09-09T09:28:52;4.93;;;2.65;;
35993;SDS011;22066;54.274;18.578;2022-09-09T09:31:19;7.60;;;2.60;;
35993;SDS011;22066;54.274;18.578;2022-09-09T09:33:47;4.63;;;2.08;;
35993;SDS011;22066;54.274;18.578;2022-09-09T09:36:14;3.63;;;2.03;;
35993;SDS011;22066;54.274;18.578;2022-09-09T09:41:40;5.68;;;2.20;;
35993;SDS011;22066;54.274;18.578;2022-09-09T09:44:27;6.38;;;2.50;;
35993;SDS011;22066;54.274;18.578;2022-09-09T09:47:04;4.60;;;2.42;;
35993;SDS011;22066;54.274;18.578;2022-09-09T09:49:31;5.85;;;3.00;;
35993;SDS011;22066;54.274;18.578;2022-09-09T09:52:03;4.75;;;2.20;;
35993;SDS011;22066;54.274;18.578;2022-09-09T09:54:32;5.28;;;2.92;;
35993;SDS011;22066;54.274;18.578;2022-09-09T10:01:54;8.27;;;2.90;;
35993;SDS011;22066;54.274;18.578;2022-09-09T10:04:21;5.30;;;2.60;;
35993;SDS011;22066;54.274;18.578;2022-09-09T10:06:48;7.00;;;3.30;;
35993;SDS011;22066;54.274;18.578;2022-09-09T10:09:20;6.07;;;2.97;;
35993;SDS011;22066;54.274;18.578;2022-09-09T10:19:09;5.90;;;3.13;;
35993;SDS011;22066;54.274;18.578;2022-09-09T10:35:00;6.22;;;3.30;;
35993;SDS011;22066;54.274;18.578;2022-09-09T10:40:02;10.35;;;4.85;;
35993;SDS011;22066;54.274;18.578;2022-09-09T10:42:30;7.35;;;3.50;;
35993;SDS011;22066;54.274;18.578;2022-09-09T10:45:07;6.18;;;3.15;;
35993;SDS011;22066;54.274;18.578;2022-09-09T10:48:13;5.97;;;3.38;;
35993;SDS011;22066;54.274;18.578;2022-09-09T10:55:46;6.45;;;3.55;;
35993;SDS011;22066;54.274;18.578;2022-09-09T10:58:20;7.85;;;4.32;;
35993;SDS011;22066;54.274;18.578;2022-09-09T11:00:52;8.13;;;4.18;;
35993;SDS011;22066;54.274;18.578;2022-09-09T11:03:21;5.82;;;2.90;;
35993;SDS011;22066;54.274;18.578;2022-09-09T11:05:52;7.13;;;3.95;;
35993;SDS011;22066;54.274;18.578;2022-09-09T11:08:20;8.02;;;4.13;;
35993;SDS011;22066;54.274;18.578;2022-09-09T11:10:52;9.73;;;3.78;;
35993;SDS011;22066;54.274;18.578;2022-09-09T11:13:32;10.00;;;3.88;;
35993;SDS011;22066;54.274;18.578;2022-09-09T11:19:05;6.70;;;3.78;;
35993;SDS011;22066;54.274;18.578;2022-09-09T11:21:37;9.50;;;4.15;;
35993;SDS011;22066;54.274;18.578;2022-09-09T11:24:09;7.63;;;4.20;;
35993;SDS011;22066;54.274;18.578;2022-09-09T11:26:38;7.13;;;3.45;;
35993;SDS011;22066;54.274;18.578;2022-09-09T11:39:56;8.80;;;4.85;;
35993;SDS011;22066;54.274;18.578;2022-09-09T11:42:25;8.10;;;4.88;;
35993;SDS011;22066;54.274;18.578;2022-09-09T11:44:51;6.63;;;4.30;;
35993;SDS011;22066;54.274;18.578;2022-09-09T11:47:29;9.73;;;4.20;;
35993;SDS011;22066;54.274;18.578;2022-09-09T11:50:40;8.85;;;4.88;;
35993;SDS011;22066;54.274;18.578;2022-09-09T11:52:43;8.05;;;4.28;;
35993;SDS011;22066;54.274;18.578;2022-09-09T11:57:37;7.07;;;4.50;;
35993;SDS011;22066;54.274;18.578;2022-09-09T12:00:04;7.15;;;4.30;;
35993;SDS011;22066;54.274;18.578;2022-09-09T12:02:30;7.85;;;4.00;;
35993;SDS011;22066;54.274;18.578;2022-09-09T12:09:58;7.70;;;4.60;;
35993;SDS011;22066;54.274;18.578;2022-09-09T12:17:43;8.55;;;4.43;;
35993;SDS011;22066;54.274;18.578;2022-09-09T12:28:11;8.30;;;4.53;;
35993;SDS011;22066;54.274;18.578;2022-09-09T12:30:45;7.15;;;4.80;;
35993;SDS011;22066;54.274;18.578;2022-09-09T12:33:16;8.23;;;4.53;;
35993;SDS011;22066;54.274;18.578;2022-09-09T12:35:43;11.57;;;5.70;;
35993;SDS011;22066;54.274;18.578;2022-09-09T12:38:18;9.57;;;4.85;;
35993;SDS011;22066;54.274;18.578;2022-09-09T12:40:56;9.40;;;4.57;;
35993;SDS011;22066;54.274;18.578;2022-09-09T12:43:23;10.07;;;5.28;;
35993;SDS011;22066;54.274;18.578;2022-09-09T12:45:50;11.10;;;5.13;;
35993;SDS011;22066;54.274;18.578;2022-09-09T12:48:27;9.15;;;5.10;;
35993;SDS011;22066;54.274;18.578;2022-09-09T12:50:55;11.32;;;5.35;;
35993;SDS011;22066;54.274;18.578;2022-09-09T12:53:23;10.35;;;5.35;;
35993;SDS011;22066;54.274;18.578;2022-09-09T12:55:58;9.32;;;5.07;;
35993;SDS011;22066;54.274;18.578;2022-09-09T12:58:24;9.80;;;4.72;;
35993;SDS011;22066;54.274;18.578;2022-09-09T13:00:53;11.80;;;5.30;;
35993;SDS011;22066;54.274;18.578;2022-09-09T13:03:23;9.73;;;5.32;;
35993;SDS011;22066;54.274;18.578;2022-09-09T13:05:52;9.93;;;5.75;;
35993;SDS011;22066;54.274;18.578;2022-09-09T13:08:19;9.15;;;5.70;;
35993;SDS011;22066;54.274;18.578;2022-09-09T13:13:20;12.85;;;5.32;;
35993;SDS011;22066;54.274;18.578;2022-09-09T13:15:48;7.68;;;4.90;;
35993;SDS011;22066;54.274;18.578;2022-09-09T13:18:14;11.57;;;6.10;;
35993;SDS011;22066;54.274;18.578;2022-09-09T13:20:45;9.82;;;5.00;;
35993;SDS011;22066;54.274;18.578;2022-09-09T13:23:12;8.15;;;5.07;;
35993;SDS011;22066;54.274;18.578;2022-09-09T13:25:38;9.27;;;5.75;;
35993;SDS011;22066;54.274;18.578;2022-09-09T13:28:05;12.35;;;6.57;;
35993;SDS011;22066;54.274;18.578;2022-09-09T13:30:32;10.00;;;5.85;;
35993;SDS011;22066;54.274;18.578;2022-09-09T13:35:49;9.80;;;5.95;;
35993;SDS011;22066;54.274;18.578;2022-09-09T13:38:16;11.68;;;6.55;;
35993;SDS011;22066;54.274;18.578;2022-09-09T13:40:51;10.77;;;5.50;;
35993;SDS011;22066;54.274;18.578;2022-09-09T13:43:20;11.90;;;6.82;;
35993;SDS011;22066;54.274;18.578;2022-09-09T13:45:53;11.48;;;6.10;;
35993;SDS011;22066;54.274;18.578;2022-09-09T13:48:21;11.85;;;6.75;;
35993;SDS011;22066;54.274;18.578;2022-09-09T13:50:53;13.35;;;6.93;;
35993;SDS011;22066;54.274;18.578;2022-09-09T13:53:19;11.60;;;6.55;;
35993;SDS011;22066;54.274;18.578;2022-09-09T13:55:46;14.02;;;6.32;;
35993;SDS011;22066;54.274;18.578;2022-09-09T13:58:15;10.55;;;6.05;;
35993;SDS011;22066;54.274;18.578;2022-09-09T14:00:43;10.82;;;6.55;;
35993;SDS011;22066;54.274;18.578;2022-09-09T14:03:10;12.35;;;7.43;;
35993;SDS011;22066;54.274;18.578;2022-09-09T14:05:36;10.95;;;6.90;;
35993;SDS011;22066;54.274;18.578;2022-09-09T14:08:05;10.80;;;6.63;;
35993;SDS011;22066;54.274;18.578;2022-09-09T14:10:32;10.10;;;6.28;;
35993;SDS011;22066;54.274;18.578;2022-09-09T14:13:00;11.73;;;6.63;;
35993;SDS011;22066;54.274;18.578;2022-09-09T14:15:26;10.50;;;6.05;;
35993;SDS011;22066;54.274;18.578;2022-09-09T14:17:53;13.25;;;6.63;;
35993;SDS011;22066;54.274;18.578;2022-09-09T14:20:19;11.18;;;6.20;;
35993;SDS011;22066;54.274;18.578;2022-09-09T14:22:45;12.27;;;6.50;;
35993;SDS011;22066;54.274;18.578;2022-09-09T14:25:12;10.40;;;6.57;;
35993;SDS011;22066;54.274;18.578;2022-09-09T14:27:38;15.45;;;7.35;;
35993;SDS011;22066;54.274;18.578;2022-09-09T14:30:05;12.88;;;6.88;;
35993;SDS011;22066;54.274;18.578;2022-09-09T14:32:31;12.38;;;7.00;;
35993;SDS011;22066;54.274;18.578;2022-09-09T14:34:58;13.93;;;7.20;;
35993;SDS011;22066;54.274;18.578;2022-09-09T14:37:24;12.18;;;6.95;;
35993;SDS011;22066;54.274;18.578;2022-09-09T14:39:50;11.07;;;6.95;;
35993;SDS011;22066;54.274;18.578;2022-09-09T14:42:16;11.88;;;6.90;;
35993;SDS011;22066;54.274;18.578;2022-09-09T14:44:42;10.57;;;7.15;;
35993;SDS011;22066;54.274;18.578;2022-09-09T14:47:08;12.75;;;7.38;;
35993;SDS011;22066;54.274;18.578;2022-09-09T14:49:35;11.63;;;7.28;;
35993;SDS011;22066;54.274;18.578;2022-09-09T14:52:02;12.45;;;6.65;;
35993;SDS011;22066;54.274;18.578;2022-09-09T14:54:28;15.35;;;7.53;;
35993;SDS011;22066;54.274;18.578;2022-09-09T14:56:54;11.07;;;7.47;;
35993;SDS011;22066;54.274;18.578;2022-09-09T14:59:21;16.33;;;8.05;;
35993;SDS011;22066;54.274;18.578;2022-09-09T15:01:47;12.90;;;7.53;;
35993;SDS011;22066;54.274;18.578;2022-09-09T15:04:13;16.23;;;8.00;;
35993;SDS011;22066;54.274;18.578;2022-09-09T15:06:39;17.73;;;8.65;;
35993;SDS011;22066;54.274;18.578;2022-09-09T15:09:07;13.52;;;7.72;;
35993;SDS011;22066;54.274;18.578;2022-09-09T15:11:34;13.23;;;7.53;;
35993;SDS011;22066;54.274;18.578;2022-09-09T15:14:04;15.07;;;8.68;;
35993;SDS011;22066;54.274;18.578;2022-09-09T15:16:30;12.65;;;7.85;;
35993;SDS011;22066;54.274;18.578;2022-09-09T15:18:57;15.82;;;7.47;;
35993;SDS011;22066;54.274;18.578;2022-09-09T15:21:25;15.85;;;8.93;;
35993;SDS011;22066;54.274;18.578;2022-09-09T15:23:51;14.13;;;7.57;;
35993;SDS011;22066;54.274;18.578;2022-09-09T15:26:17;18.33;;;10.18;;
35993;SDS011;22066;54.274;18.578;2022-09-09T15:28:44;16.10;;;9.50;;
35993;SDS011;22066;54.274;18.578;2022-09-09T15:31:13;16.77;;;9.52;;
35993;SDS011;22066;54.274;18.578;2022-09-09T15:33:39;13.45;;;8.05;;
35993;SDS011;22066;54.274;18.578;2022-09-09T15:38:58;16.05;;;9.85;;
35993;SDS011;22066;54.274;18.578;2022-09-09T15:41:25;18.02;;;9.88;;
35993;SDS011;22066;54.274;18.578;2022-09-09T15:43:52;15.65;;;7.38;;
35993;SDS011;22066;54.274;18.578;2022-09-09T15:46:52;16.23;;;8.68;;
35993;SDS011;22066;54.274;18.578;2022-09-09T15:49:15;19.48;;;10.00;;
35993;SDS011;22066;54.274;18.578;2022-09-09T15:51:47;17.15;;;9.02;;
35993;SDS011;22066;54.274;18.578;2022-09-09T15:54:17;17.40;;;9.43;;
35993;SDS011;22066;54.274;18.578;2022-09-09T15:56:44;29.13;;;12.48;;
35993;SDS011;22066;54.274;18.578;2022-09-09T15:59:11;22.83;;;11.82;;
35993;SDS011;22066;54.274;18.578;2022-09-09T16:01:37;26.48;;;15.05;;
35993;SDS011;22066;54.274;18.578;2022-09-09T16:04:07;22.65;;;12.38;;
35993;SDS011;22066;54.274;18.578;2022-09-09T16:06:33;22.65;;;11.63;;
35993;SDS011;22066;54.274;18.578;2022-09-09T16:08:59;21.92;;;12.90;;
35993;SDS011;22066;54.274;18.578;2022-09-09T16:11:36;19.52;;;11.00;;
35993;SDS011;22066;54.274;18.578;2022-09-09T16:14:02;19.65;;;10.32;;
35993;SDS011;22066;54.274;18.578;2022-09-09T16:16:29;19.08;;;11.65;;
35993;SDS011;22066;54.274;18.578;2022-09-09T16:18:56;21.67;;;10.88;;
35993;SDS011;22066;54.274;18.578;2022-09-09T16:21:27;20.83;;;10.75;;
35993;SDS011;22066;54.274;18.578;2022-09-09T16:23:57;19.13;;;10.07;;
35993;SDS011;22066;54.274;18.578;2022-09-09T16:26:24;17.77;;;9.38;;
35993;SDS011;22066;54.274;18.578;2022-09-09T16:28:50;22.52;;;9.90;;
35993;SDS011;22066;54.274;18.578;2022-09-09T16:33:45;21.17;;;11.38;;
35993;SDS011;22066;54.274;18.578;2022-09-09T16:36:13;18.45;;;9.85;;
35993;SDS011;22066;54.274;18.578;2022-09-09T16:38:39;20.75;;;9.93;;
35993;SDS011;22066;54.274;18.578;2022-09-09T16:41:06;20.05;;;10.05;;
35993;SDS011;22066;54.274;18.578;2022-09-09T16:43:33;22.50;;;11.18;;
35993;SDS011;22066;54.274;18.578;2022-09-09T16:46:00;20.00;;;10.63;;
35993;SDS011;22066;54.274;18.578;2022-09-09T16:48:32;21.60;;;12.40;;
35993;SDS011;22066;54.274;18.578;2022-09-09T16:51:05;20.05;;;11.23;;
35993;SDS011;22066;54.274;18.578;2022-09-09T16:53:32;22.63;;;11.27;;
35993;SDS011;22066;54.274;18.578;2022-09-09T16:55:58;22.20;;;10.95;;
35993;SDS011;22066;54.274;18.578;2022-09-09T16:58:24;23.75;;;12.80;;
35993;SDS011;22066;54.274;18.578;2022-09-09T17:00:50;22.60;;;10.48;;
35993;SDS011;22066;54.274;18.578;2022-09-09T17:03:16;22.73;;;11.77;;
35993;SDS011;22066;54.274;18.578;2022-09-09T17:05:42;21.85;;;11.05;;
35993;SDS011;22066;54.274;18.578;2022-09-09T17:08:09;23.58;;;12.25;;
35993;SDS011;22066;54.274;18.578;2022-09-09T17:10:39;20.83;;;11.32;;
35993;SDS011;22066;54.274;18.578;2022-09-09T17:13:06;20.58;;;10.85;;
35993;SDS011;22066;54.274;18.578;2022-09-09T17:15:32;20.25;;;11.70;;
35993;SDS011;22066;54.274;18.578;2022-09-09T17:17:59;20.63;;;11.68;;
35993;SDS011;22066;54.274;18.578;2022-09-09T17:20:25;21.10;;;11.57;;